Time;durP1;ratioP1;P1;durP2;ratioP2;P2;SDS_P1;SDS_P2;PMS_P1;PMS_P2;Temp;Humidity;BMP_temperature;BMP_pressure;BME280_temperature;BME280_humidity;BME280_pressure;Samples;Min_cycle;Max_cycle;Signal;HPM_P1;HPM_P2
2023/08/15 00:00:13;;;;;;;0.00;0.00;;;;;;;28.51;51.27;101255.56;5009465;28;20504;-69
2023/08/15 00:02:38;;;;;;;0.00;0.00;;;;;;;28.19;53.30;101256.22;5033964;28;20057;-69
2023/08/15 00:05:04;;;;;;;0.00;0.00;;;;;;;28.26;52.90;101250.19;5033036;28;20503;-69
2023/08/15 00:07:30;;;;;;;0.00;0.00;;;;;;;28.40;52.29;101250.75;5050774;28;20063;-69
2023/08/15 00:09:55;;;;;;;0.00;0.00;;;;;;;28.35;51.86;101253.69;5049241;28;20491;-68
2023/08/15 00:12:20;;;;;;;0.00;0.00;;;;;;;28.49;51.31;101249.56;5051035;28;20370;-68
2023/08/15 00:14:46;;;;;;;0.00;0.00;;;;;;;28.54;50.71;101248.53;5050263;28;20037;-68
2023/08/15 00:17:11;;;;;;;0.00;0.00;;;;;;;28.48;51.21;101241.59;5050377;28;20095;-69
2023/08/15 00:19:37;;;;;;;0.00;0.00;;;;;;;28.65;51.38;101241.50;5051405;28;20029;-68
2023/08/15 00:22:03;;;;;;;0.00;0.00;;;;;;;28.63;51.70;101238.28;5051062;28;20041;-69
2023/08/15 00:24:28;;;;;;;0.00;0.00;;;;;;;28.68;51.48;101234.50;5050160;28;20025;-68
2023/08/15 00:26:53;;;;;;;0.00;0.00;;;;;;;28.51;52.27;101230.69;5049782;28;20037;-69
2023/08/15 00:29:19;;;;;;;0.00;0.00;;;;;;;28.42;52.14;101227.13;5047033;28;20033;-69
2023/08/15 00:31:44;;;;;;;0.00;0.00;;;;;;;28.63;51.21;101229.97;5048375;28;20029;-68
2023/08/15 00:34:09;;;;;;;0.00;0.00;;;;;;;28.28;52.25;101225.78;5049642;28;20499;-68
2023/08/15 00:36:35;;;;;;;0.00;0.00;;;;;;;28.50;51.69;101229.03;5050556;28;20036;-67
2023/08/15 00:39:02;;;;;;;0.00;0.00;;;;;;;28.37;51.98;101238.41;5057959;28;20037;-68
2023/08/15 00:41:29;;;;;;;0.00;0.00;;;;;;;28.20;52.30;101238.53;5049627;28;20098;-70
2023/08/15 00:43:55;;;;;;;0.00;0.00;;;;;;;28.33;52.17;101233.88;5049310;28;20017;-68
2023/08/15 00:46:22;;;;;;;0.00;0.00;;;;;;;28.29;52.34;101241.22;5051035;28;20044;-69
2023/08/15 00:48:48;;;;;;;0.00;0.00;;;;;;;28.08;52.95;101232.06;5049383;28;20167;-68
2023/08/15 00:51:14;;;;;;;0.00;0.00;;;;;;;28.28;52.65;101232.13;5049362;28;20447;-68
2023/08/15 00:53:40;;;;;;;0.00;0.00;;;;;;;28.20;52.84;101219.16;5050093;28;20037;-69
2023/08/15 00:56:06;;;;;;;0.00;0.00;;;;;;;28.27;52.88;101215.84;5049313;28;20488;-68
2023/08/15 00:58:32;;;;;;;0.00;0.00;;;;;;;28.20;53.60;101212.81;5050470;28;20036;-69
2023/08/15 01:00:57;;;;;;;0.00;0.00;;;;;;;28.33;52.82;101209.00;5049241;28;20501;-69
2023/08/15 01:03:23;;;;;;;0.00;0.00;;;;;;;28.27;53.39;101213.09;5028940;28;20048;-68
2023/08/15 01:05:49;;;;;;;0.00;0.00;;;;;;;28.44;52.85;101207.47;5045824;28;20124;-69
2023/08/15 01:08:15;;;;;;;0.00;0.00;;;;;;;28.41;53.67;101197.88;5050147;28;20451;-69
2023/08/15 01:10:43;;;;;;;0.00;0.00;;;;;;;28.28;53.03;101198.97;5049895;28;20021;-68
2023/08/15 01:13:22;;;;;;;0.00;0.00;;;;;;;28.35;53.70;101199.22;5048576;28;20041;-68
2023/08/15 01:15:51;;;;;;;0.00;0.00;;;;;;;28.21;53.75;101195.91;5050040;28;20143;-70
2023/08/15 01:18:31;;;;;;;0.00;0.00;;;;;;;28.48;53.76;101191.81;5048879;28;20048;-69
2023/08/15 01:20:58;;;;;;;0.00;0.00;;;;;;;28.54;53.36;101188.53;5049619;28;20056;-69
2023/08/15 01:23:44;;;;;;;0.00;0.00;;;;;;;28.61;54.05;101190.78;5049176;28;20068;-69
2023/08/15 01:26:10;;;;;;;0.00;0.00;;;;;;;28.46;54.28;101199.66;5049566;28;20396;-69
2023/08/15 01:28:35;;;;;;;0.00;0.00;;;;;;;28.45;53.86;101190.53;5031123;28;20066;-69
2023/08/15 01:31:08;;;;;;;0.00;0.00;;;;;;;28.52;53.36;101198.31;5041293;28;20036;-68
2023/08/15 01:33:39;;;;;;;0.00;0.00;;;;;;;28.40;54.58;101198.22;5053454;28;20493;-69
2023/08/15 01:36:14;;;;;;;0.00;0.00;;;;;;;28.43;54.53;101205.84;5057577;28;20041;-68
2023/08/15 01:38:45;;;;;;;0.00;0.00;;;;;;;28.45;53.87;101209.06;5042606;28;20029;-69
2023/08/15 01:41:14;;;;;;;0.00;0.00;;;;;;;28.18;55.53;101204.88;5048631;28;20029;-69
2023/08/15 01:43:42;;;;;;;0.00;0.00;;;;;;;28.46;53.92;101205.19;5033063;28;20021;-69
2023/08/15 01:46:08;;;;;;;0.00;0.00;;;;;;;28.34;54.22;101210.63;5055985;28;20160;-69
2023/08/15 01:48:41;;;;;;;0.00;0.00;;;;;;;27.42;57.65;101206.75;5049096;28;20492;-68
2023/08/15 01:51:07;;;;;;;0.00;0.00;;;;;;;25.99;62.75;101205.19;5032972;28;20033;-69
2023/08/15 01:53:34;;;;;;;0.00;0.00;;;;;;;27.42;57.57;101192.19;5048440;28;20041;-69
2023/08/15 01:55:59;;;;;;;0.00;0.00;;;;;;;27.62;57.53;101188.69;5048194;28;20124;-68
2023/08/15 01:58:24;;;;;;;0.00;0.00;;;;;;;27.43;58.04;101183.56;5049388;28;20504;-69
2023/08/15 02:00:50;;;;;;;0.00;0.00;;;;;;;27.60;56.93;101186.25;5048531;28;20041;-69
2023/08/15 02:03:15;;;;;;;0.00;0.00;;;;;;;27.88;56.29;101180.28;5048856;28;20037;-68
2023/08/15 02:05:40;;;;;;;0.00;0.00;;;;;;;28.00;55.72;101180.41;5048273;28;20029;-68
2023/08/15 02:08:06;;;;;;;0.00;0.00;;;;;;;28.13;55.44;101188.47;5049007;28;20024;-69
2023/08/15 02:10:31;;;;;;;0.00;0.00;;;;;;;28.14;55.39;101187.34;5048526;28;20025;-68
2023/08/15 02:12:57;;;;;;;0.00;0.00;;;;;;;27.79;56.99;101206.00;5047551;28;20048;-69
2023/08/15 02:15:22;;;;;;;0.00;0.00;;;;;;;26.94;61.19;101215.28;5049004;28;20189;-68
2023/08/15 02:17:47;;;;;;;0.00;0.00;;;;;;;27.36;60.27;101213.59;5048250;28;20481;-69
2023/08/15 02:20:13;;;;;;;0.00;0.00;;;;;;;27.54;59.40;101222.66;5048721;28;20049;-69
2023/08/15 02:22:38;;;;;;;0.00;0.00;;;;;;;27.24;59.88;101216.22;5048946;28;20017;-68
2023/08/15 02:25:04;;;;;;;0.00;0.00;;;;;;;27.82;57.55;101218.34;5048113;28;20067;-69
2023/08/15 02:27:30;;;;;;;0.00;0.00;;;;;;;27.56;59.44;101229.47;5047661;28;20040;-69
2023/08/15 02:29:55;;;;;;;0.00;0.00;;;;;;;28.15;56.98;101227.63;5046555;28;20400;-69
2023/08/15 02:32:20;;;;;;;0.00;0.00;;;;;;;28.33;56.00;101209.81;5054470;28;20028;-68
2023/08/15 02:34:46;;;;;;;0.00;0.00;;;;;;;28.48;55.75;101220.28;5047282;28;20033;-68
2023/08/15 02:37:11;;;;;;;0.00;0.00;;;;;;;28.42;56.16;101227.13;5048408;28;20032;-68
2023/08/15 02:39:36;;;;;;;0.00;0.00;;;;;;;27.99;58.01;101231.31;5048306;28;20044;-69
2023/08/15 02:42:02;;;;;;;0.00;0.00;;;;;;;27.97;58.00;101233.59;5047763;28;20468;-68
2023/08/15 02:44:28;;;;;;;0.00;0.00;;;;;;;28.48;56.69;101252.66;5047606;28;20033;-69
2023/08/15 02:46:53;;;;;;;0.00;0.00;;;;;;;27.84;58.67;101240.91;5048385;28;20032;-69
2023/08/15 02:49:19;;;;;;;0.00;0.00;;;;;;;28.05;57.41;101247.34;5048048;28;20142;-68
2023/08/15 02:51:44;;;;;;;0.00;0.00;;;;;;;28.36;56.50;101247.84;5048286;28;20040;-69
2023/08/15 02:54:10;;;;;;;0.00;0.00;;;;;;;28.34;55.99;101246.56;5047374;28;20033;-69
2023/08/15 02:56:36;;;;;;;0.00;0.00;;;;;;;28.37;55.42;101245.88;5026812;28;20033;-69
2023/08/15 02:59:01;;;;;;;0.00;0.00;;;;;;;28.44;55.69;101240.66;5047127;28;20028;-69
2023/08/15 03:01:27;;;;;;;0.00;0.00;;;;;;;27.68;58.00;101237.06;5047736;28;20021;-69
2023/08/15 03:03:52;;;;;;;0.00;0.00;;;;;;;27.78;57.40;101237.53;5037885;28;20048;-69
2023/08/15 03:06:18;;;;;;;0.00;0.00;;;;;;;27.77;57.61;101240.63;5041267;28;20417;-69
2023/08/15 03:08:45;;;;;;;0.00;0.00;;;;;;;27.50;58.05;101241.81;5031095;28;20037;-67
2023/08/15 03:11:10;;;;;;;0.00;0.00;;;;;;;28.02;56.55;101238.91;5043615;28;20034;-69
2023/08/15 03:13:36;;;;;;;0.00;0.00;;;;;;;27.68;57.72;101231.53;5035571;28;20496;-68
2023/08/15 03:16:01;;;;;;;0.00;0.00;;;;;;;27.78;56.42;101234.78;5036455;28;20037;-68
2023/08/15 03:18:26;;;;;;;0.00;0.00;;;;;;;27.10;59.47;101218.34;5042228;28;20447;-69
2023/08/15 03:20:59;;;;;;;0.00;0.00;;;;;;;27.52;57.47;101219.41;5029378;28;20033;-68
2023/08/15 03:23:25;;;;;;;0.00;0.00;;;;;;;28.02;55.62;101223.16;5033710;28;20044;-69
2023/08/15 03:26:01;;;;;;;0.00;0.00;;;;;;;28.16;55.27;101232.03;5040763;28;20043;-68
2023/08/15 03:28:27;;;;;;;0.00;0.00;;;;;;;27.99;55.11;101234.06;5047336;28;20017;-69
2023/08/15 03:30:52;;;;;;;0.00;0.00;;;;;;;27.35;57.25;101238.78;5030532;28;20077;-68
2023/08/15 03:33:18;;;;;;;0.00;0.00;;;;;;;27.49;57.47;101248.50;5042516;28;20416;-68
2023/08/15 03:35:51;;;;;;;0.00;0.00;;;;;;;27.90;55.90;101239.59;5036392;28;20033;-69
2023/08/15 03:38:18;;;;;;;0.00;0.00;;;;;;;27.50;56.63;101230.78;5051707;28;20117;-68
2023/08/15 03:40:45;;;;;;;0.00;0.00;;;;;;;27.74;55.34;101233.00;5034826;28;20042;-69
2023/08/15 03:43:11;;;;;;;0.00;0.00;;;;;;;27.21;55.98;101238.94;5046533;28;20111;-71
2023/08/15 03:45:37;;;;;;;0.00;0.00;;;;;;;27.36;55.78;101232.91;5031576;28;20131;-67
2023/08/15 03:48:07;;;;;;;0.00;0.00;;;;;;;27.47;55.10;101236.16;5042762;28;20404;-69
2023/08/15 03:50:36;;;;;;;0.00;0.00;;;;;;;27.68;54.72;101237.06;5035706;28;20056;-69
2023/08/15 03:53:02;;;;;;;0.00;0.00;;;;;;;27.19;55.96;101238.44;5017049;28;20025;-69
2023/08/15 03:55:31;;;;;;;0.00;0.00;;;;;;;26.76;57.23;101249.50;5037976;28;20028;-69
2023/08/15 03:57:57;;;;;;;0.00;0.00;;;;;;;27.27;55.21;101250.59;5040265;28;20038;-69
2023/08/15 04:00:22;;;;;;;0.00;0.00;;;;;;;26.65;57.54;101252.88;5044759;28;20040;-70
2023/08/15 04:02:48;;;;;;;0.00;0.00;;;;;;;26.97;56.77;101248.88;5028568;28;20045;-70
2023/08/15 04:05:14;;;;;;;0.00;0.00;;;;;;;27.03;56.31;101256.63;5025954;28;20060;-69
2023/08/15 04:07:40;;;;;;;0.00;0.00;;;;;;;27.16;55.82;101255.66;5036098;28;20468;-69
2023/08/15 04:10:06;;;;;;;0.00;0.00;;;;;;;27.03;55.31;101253.09;5059318;28;20033;-69
2023/08/15 04:12:33;;;;;;;0.00;0.00;;;;;;;26.97;55.55;101259.91;5040205;28;20029;-69
2023/08/15 04:15:01;;;;;;;0.00;0.00;;;;;;;27.13;55.69;101266.53;5049571;28;20116;-69
2023/08/15 04:17:27;;;;;;;0.00;0.00;;;;;;;26.92;56.26;101272.72;5044152;28;20029;-69
2023/08/15 04:19:52;;;;;;;0.00;0.00;;;;;;;27.22;54.74;101273.69;5050060;28;20025;-69
2023/08/15 04:22:18;;;;;;;0.00;0.00;;;;;;;26.70;55.88;101272.00;5050981;28;20031;-69
2023/08/15 04:24:43;;;;;;;0.00;0.00;;;;;;;26.86;56.10;101287.81;5049922;28;20041;-69
2023/08/15 04:27:08;;;;;;;0.00;0.00;;;;;;;26.83;56.19;101274.63;5050517;28;20059;-69
2023/08/15 04:29:34;;;;;;;0.00;0.00;;;;;;;26.39;57.65;101280.38;5049896;28;20036;-69
2023/08/15 04:31:59;;;;;;;0.00;0.00;;;;;;;26.67;56.34;101286.44;5061471;28;20024;-70
2023/08/15 04:34:25;;;;;;;0.00;0.00;;;;;;;26.86;55.43;101275.94;5056263;28;20432;-68
2023/08/15 04:36:50;;;;;;;0.00;0.00;;;;;;;26.64;56.29;101278.81;5068883;28;20036;-69
2023/08/15 04:39:18;;;;;;;0.00;0.00;;;;;;;26.96;55.45;101272.88;5065143;28;20043;-68
2023/08/15 04:41:43;;;;;;;0.00;0.00;;;;;;;26.53;56.82;101280.25;5059550;28;20058;-69
2023/08/15 04:44:10;;;;;;;0.00;0.00;;;;;;;26.27;57.79;101290.38;5058040;28;20041;-69
2023/08/15 04:46:35;;;;;;;0.00;0.00;;;;;;;26.57;57.11;101295.84;5034577;28;20043;-69
2023/08/15 04:49:01;;;;;;;0.00;0.00;;;;;;;25.81;59.86;101296.28;5047541;28;20394;-68
2023/08/15 04:51:26;;;;;;;0.00;0.00;;;;;;;26.48;57.60;101299.69;5050023;28;20098;-69
2023/08/15 04:53:52;;;;;;;0.00;0.00;;;;;;;26.68;56.75;101288.88;5049400;28;20041;-70
2023/08/15 04:56:17;;;;;;;0.00;0.00;;;;;;;26.76;56.21;101298.31;5050138;28;20493;-68
2023/08/15 04:58:42;;;;;;;0.00;0.00;;;;;;;26.66;56.64;101296.66;5049935;28;20124;-71
2023/08/15 05:01:08;;;;;;;0.00;0.00;;;;;;;26.35;58.07;101311.66;5041073;28;20041;-68
2023/08/15 05:03:35;;;;;;;0.00;0.00;;;;;;;26.43;57.15;101308.94;5049964;28;20072;-68
2023/08/15 05:06:01;;;;;;;0.00;0.00;;;;;;;26.41;57.35;101315.88;5049502;28;20563;-69
2023/08/15 05:08:26;;;;;;;0.00;0.00;;;;;;;26.59;56.51;101314.81;5050037;28;20029;-68
2023/08/15 05:10:52;;;;;;;0.00;0.00;;;;;;;26.62;56.41;101330.69;5049064;28;20472;-69
2023/08/15 05:13:18;;;;;;;0.00;0.00;;;;;;;26.77;55.52;101335.81;5049308;28;20024;-69
2023/08/15 05:15:43;;;;;;;0.00;0.00;;;;;;;26.50;56.62;101336.84;5043435;28;20034;-68
2023/08/15 05:18:10;;;;;;;0.00;0.00;;;;;;;26.59;56.47;101339.63;5046675;28;20085;-70
2023/08/15 05:20:35;;;;;;;0.00;0.00;;;;;;;26.87;55.33;101352.03;5049179;28;20045;-68
2023/08/15 05:23:01;;;;;;;0.00;0.00;;;;;;;26.31;57.16;101358.34;5048116;28;20029;-68
2023/08/15 05:25:26;;;;;;;0.00;0.00;;;;;;;25.90;58.83;101371.53;5050499;28;20032;-68
2023/08/15 05:27:52;;;;;;;0.00;0.00;;;;;;;26.31;57.51;101371.28;5045393;28;20143;-68
2023/08/15 05:30:17;;;;;;;0.00;0.00;;;;;;;26.46;56.70;101376.38;5050642;28;20029;-69
2023/08/15 05:32:43;;;;;;;0.00;0.00;;;;;;;26.11;57.84;101369.91;5048288;28;20094;-69
2023/08/15 05:35:08;;;;;;;0.00;0.00;;;;;;;26.20;57.26;101367.19;5048145;28;20048;-68
2023/08/15 05:37:33;;;;;;;0.00;0.00;;;;;;;26.44;56.58;101384.16;5055524;28;20016;-68
2023/08/15 05:39:59;;;;;;;0.00;0.00;;;;;;;25.70;60.08;101383.03;5057876;28;20931;-68
2023/08/15 05:42:24;;;;;;;0.00;0.00;;;;;;;26.17;57.84;101378.84;5053605;28;20030;-68
2023/08/15 05:44:50;;;;;;;0.00;0.00;;;;;;;25.97;58.40;101382.91;5041827;28;20036;-69
2023/08/15 05:47:15;;;;;;;0.00;0.00;;;;;;;26.03;58.43;101389.91;5044114;28;20033;-69
2023/08/15 05:49:41;;;;;;;0.00;0.00;;;;;;;26.16;58.35;101386.31;5048226;28;20025;-68
2023/08/15 05:52:07;;;;;;;0.00;0.00;;;;;;;25.78;59.78;101396.06;5044132;28;20037;-70
2023/08/15 05:54:33;;;;;;;0.05;0.05;;;;;;;26.44;57.74;101390.47;5047958;28;20099;-68
2023/08/15 05:56:59;;;;;;;0.00;0.00;;;;;;;26.19;58.70;101399.44;5047904;28;20037;-68
2023/08/15 05:59:24;;;;;;;0.00;0.00;;;;;;;26.10;58.81;101412.38;5048087;28;20029;-68
2023/08/15 06:01:50;;;;;;;0.00;0.00;;;;;;;25.56;61.28;101418.06;5048093;28;20514;-68
2023/08/15 06:04:15;;;;;;;0.00;0.00;;;;;;;25.25;62.85;101421.50;5049304;28;20479;-68
2023/08/15 06:06:41;;;;;;;0.00;0.00;;;;;;;25.76;61.20;101423.09;5044648;28;20035;-69
2023/08/15 06:09:07;;;;;;;0.00;0.00;;;;;;;25.37;62.40;101415.47;5030700;28;20072;-70
2023/08/15 06:11:32;;;;;;;0.00;0.00;;;;;;;26.00;60.67;101416.13;5049629;28;20025;-69
2023/08/15 06:13:57;;;;;;;0.00;0.00;;;;;;;26.09;59.36;101414.28;5054637;28;20120;-71
2023/08/15 06:16:23;;;;;;;0.00;0.00;;;;;;;26.36;59.24;101416.06;5045927;28;20028;-68
2023/08/15 06:18:48;;;;;;;0.00;0.00;;;;;;;25.68;60.84;101426.59;5047648;28;20033;-69
2023/08/15 06:21:14;;;;;;;0.00;0.00;;;;;;;26.15;59.91;101414.16;5048063;28;20386;-69
2023/08/15 06:23:39;;;;;;;0.00;0.00;;;;;;;26.48;59.35;101412.69;5047542;28;20075;-69
2023/08/15 06:26:04;;;;;;;0.00;0.00;;;;;;;26.20;59.75;101425.06;5047888;28;20420;-69
2023/08/15 06:28:30;;;;;;;0.00;0.00;;;;;;;26.10;60.11;101420.63;5049317;28;20339;-69
2023/08/15 06:30:55;;;;;;;0.00;0.00;;;;;;;26.90;57.59;101435.00;5045077;28;20527;-68
2023/08/15 06:33:21;;;;;;;0.00;0.00;;;;;;;26.42;59.63;101441.53;5038851;28;20044;-69
2023/08/15 06:35:46;;;;;;;0.00;0.00;;;;;;;25.88;61.96;101448.13;5046440;28;20037;-69
2023/08/15 06:38:11;;;;;;;0.00;0.00;;;;;;;25.46;63.82;101446.66;5048743;28;20041;-68
2023/08/15 06:40:37;;;;;;;0.00;0.00;;;;;;;25.68;63.13;101443.94;5048011;28;20512;-68
2023/08/15 06:43:02;;;;;;;0.00;0.00;;;;;;;26.51;60.37;101443.22;5060604;28;20045;-68
2023/08/15 06:45:28;;;;;;;0.00;0.00;;;;;;;26.88;59.53;101451.03;5021211;28;20066;-67
2023/08/15 06:47:53;;;;;;;0.00;0.00;;;;;;;26.83;59.34;101451.16;5037471;28;20025;-68
2023/08/15 06:50:18;;;;;;;0.00;0.00;;;;;;;26.04;61.98;101458.47;5045406;28;20029;-68
2023/08/15 06:52:44;;;;;;;0.00;0.00;;;;;;;26.72;60.39;101460.88;5045835;28;20119;-68
2023/08/15 06:55:09;;;;;;;0.00;0.00;;;;;;;26.68;60.20;101461.78;5045286;28;20083;-67
2023/08/15 06:57:35;;;;;;;0.00;0.00;;;;;;;26.91;59.81;101457.84;5048213;28;20057;-67
2023/08/15 07:00:02;;;;;;;0.00;0.00;;;;;;;26.97;59.14;101464.06;5045251;28;20033;-69
2023/08/15 07:02:29;;;;;;;0.00;0.00;;;;;;;27.47;58.01;101468.91;5029207;28;20044;-67
2023/08/15 07:04:54;;;;;;;0.00;0.00;;;;;;;26.74;60.08;101477.09;5033319;28;20029;-68
2023/08/15 07:07:19;;;;;;;0.00;0.00;;;;;;;26.62;60.83;101479.59;5041107;28;20028;-69
2023/08/15 07:09:46;;;;;;;0.00;0.00;;;;;;;26.09;63.51;101472.16;5040343;28;20155;-67
2023/08/15 07:12:12;;;;;;;0.00;0.00;;;;;;;26.06;62.98;101467.25;5051277;28;20053;-70
2023/08/15 07:14:37;;;;;;;0.00;0.00;;;;;;;26.56;61.60;101491.88;5033707;28;20122;-66
2023/08/15 07:17:03;;;;;;;0.00;0.00;;;;;;;27.61;58.54;101477.88;5032367;28;20037;-68
2023/08/15 07:19:28;;;;;;;0.00;0.00;;;;;;;27.16;60.37;101478.38;5036206;28;20108;-67
2023/08/15 07:21:54;;;;;;;0.00;0.00;;;;;;;27.63;58.92;101475.59;5032566;28;20036;-68
2023/08/15 07:24:19;;;;;;;0.00;0.00;;;;;;;26.78;61.22;101486.34;5032261;28;20049;-69
2023/08/15 07:26:45;;;;;;;0.00;0.00;;;;;;;26.61;61.89;101497.28;5035457;28;20388;-69
2023/08/15 07:29:12;;;;;;;0.00;0.00;;;;;;;26.39;61.65;101497.31;5045215;28;20049;-68
2023/08/15 07:31:37;;;;;;;0.00;0.00;;;;;;;26.37;62.28;101494.88;5042838;28;20033;-69
2023/08/15 07:34:03;;;;;;;0.05;0.05;;;;;;;26.59;61.94;101502.31;5038020;28;20041;-68
2023/08/15 07:36:28;;;;;;;0.00;0.00;;;;;;;26.26;61.99;101498.22;5047543;28;20037;-68
2023/08/15 07:38:53;;;;;;;0.00;0.00;;;;;;;27.44;59.25;101508.19;5047611;28;20080;-67
2023/08/15 07:41:19;;;;;;;0.00;0.00;;;;;;;26.23;62.86;101498.81;5039994;28;20025;-68
2023/08/15 07:43:44;;;;;;;0.00;0.00;;;;;;;26.54;61.80;101503.25;5046495;28;20025;-68
2023/08/15 07:46:10;;;;;;;0.00;0.00;;;;;;;26.78;62.19;101508.44;5045998;28;20084;-69
2023/08/15 07:48:35;;;;;;;0.00;0.00;;;;;;;27.99;57.37;101500.13;5048169;28;20033;-69
2023/08/15 07:51:00;;;;;;;0.00;0.00;;;;;;;27.55;58.91;101492.13;5037370;28;20036;-70
2023/08/15 07:53:26;;;;;;;0.00;0.00;;;;;;;27.20;59.58;101499.50;5042742;28;20057;-69
2023/08/15 07:55:51;;;;;;;0.00;0.00;;;;;;;27.37;59.30;101493.25;5028088;28;20029;-68
2023/08/15 07:58:16;;;;;;;0.00;0.00;;;;;;;27.67;58.28;101503.38;5013490;28;20052;-68
2023/08/15 08:00:42;;;;;;;0.00;0.00;;;;;;;27.28;59.10;101498.69;5034008;28;20040;-69
2023/08/15 08:03:08;;;;;;;0.00;0.00;;;;;;;27.83;57.05;101501.75;5044844;28;20413;-70
2023/08/15 08:05:34;;;;;;;0.00;0.00;;;;;;;28.15;56.39;101511.50;5041090;28;20504;-68
2023/08/15 08:07:59;;;;;;;0.00;0.00;;;;;;;27.51;57.95;101499.44;5047821;28;20083;-68
2023/08/15 08:10:25;;;;;;;0.00;0.00;;;;;;;27.55;56.53;101504.00;5034615;28;20025;-69
2023/08/15 08:12:50;;;;;;;0.00;0.00;;;;;;;27.55;56.97;101508.72;5020781;28;20164;-70
2023/08/15 08:15:16;;;;;;;0.00;0.00;;;;;;;27.55;56.70;101520.56;5043082;28;20516;-68
2023/08/15 08:17:41;;;;;;;0.00;0.00;;;;;;;27.72;57.30;101531.63;5031158;28;20026;-70
2023/08/15 08:20:15;;;;;;;0.00;0.00;;;;;;;27.26;57.52;101527.78;5031177;28;20028;-69
2023/08/15 08:22:41;;;;;;;0.00;0.00;;;;;;;27.49;56.74;101530.16;5033625;28;20028;-69
2023/08/15 08:25:21;;;;;;;0.00;0.00;;;;;;;28.70;53.76;101529.00;5024616;28;20033;-71
2023/08/15 08:27:47;;;;;;;0.00;0.00;;;;;;;28.17;54.75;101536.88;5039270;28;20045;-70
2023/08/15 08:30:17;;;;;;;0.00;0.00;;;;;;;28.51;52.01;101542.38;5046575;28;20280;-68
2023/08/15 08:32:42;;;;;;;0.00;0.00;;;;;;;27.79;54.46;101533.94;5034363;28;20493;-66
2023/08/15 08:35:09;;;;;;;0.00;0.00;;;;;;;28.04;52.60;101533.16;5044417;28;21845;-69
2023/08/15 08:37:35;;;;;;;0.00;0.00;;;;;;;27.80;53.14;101539.13;5033463;28;20106;-68
2023/08/15 08:40:00;;;;;;;0.00;0.00;;;;;;;28.09;52.60;101546.00;5044597;28;20115;-70
2023/08/15 08:42:27;;;;;;;0.00;0.00;;;;;;;28.55;52.05;101552.50;5032307;28;20044;-69
2023/08/15 08:44:53;;;;;;;0.00;0.00;;;;;;;28.31;53.29;101556.88;5033662;28;20121;-69
2023/08/15 08:47:20;;;;;;;0.00;0.00;;;;;;;27.80;54.87;101564.00;5030096;28;20061;-69
2023/08/15 08:49:47;;;;;;;0.00;0.00;;;;;;;28.35;53.63;101552.31;5032716;28;20014;-70
2023/08/15 08:52:13;;;;;;;0.00;0.00;;;;;;;28.35;53.20;101563.38;5031997;28;20084;-68
2023/08/15 08:54:39;;;;;;;0.00;0.00;;;;;;;28.45;53.91;101569.41;5033535;28;20030;-70
2023/08/15 08:57:06;;;;;;;0.00;0.00;;;;;;;29.81;49.92;101566.47;5031422;28;20494;-67
2023/08/15 08:59:35;;;;;;;0.00;0.00;;;;;;;28.64;54.23;101563.53;5031430;28;20025;-70
2023/08/15 09:02:01;;;;;;;0.00;0.00;;;;;;;28.69;52.57;101568.06;5028880;28;20028;-69
2023/08/15 09:04:26;;;;;;;0.00;0.00;;;;;;;27.95;54.88;101564.69;5046848;28;20055;-69
2023/08/15 09:06:52;;;;;;;0.00;0.00;;;;;;;27.67;55.48;101564.94;5049544;28;20033;-67
2023/08/15 09:09:19;;;;;;;0.00;0.00;;;;;;;28.40;54.06;101557.69;5049431;28;20041;-68
2023/08/15 09:11:47;;;;;;;0.00;0.00;;;;;;;28.57;52.14;101557.69;5049272;28;20037;-67
2023/08/15 09:14:12;;;;;;;0.00;0.00;;;;;;;28.69;51.81;101559.78;5049399;28;20152;-69
2023/08/15 09:16:46;;;;;;;0.00;0.00;;;;;;;28.89;50.58;101564.63;5049442;28;20025;-68
2023/08/15 09:19:12;;;;;;;0.00;0.00;;;;;;;28.44;52.49;101556.69;5049331;28;20531;-69
2023/08/15 09:21:37;;;;;;;0.00;0.00;;;;;;;28.54;51.13;101552.75;5048054;28;20033;-68
2023/08/15 09:24:04;;;;;;;0.00;0.00;;;;;;;29.18;50.26;101559.97;5049891;28;20033;-70
2023/08/15 09:26:33;;;;;;;0.00;0.00;;;;;;;28.70;49.76;101561.41;5031220;28;20041;-69
2023/08/15 09:28:59;;;;;;;0.00;0.00;;;;;;;29.18;50.12;101567.47;5047303;28;20434;-68
2023/08/15 09:31:24;;;;;;;0.00;0.00;;;;;;;29.67;49.46;101560.34;5049826;28;20051;-69
2023/08/15 09:33:50;;;;;;;0.00;0.00;;;;;;;30.14;48.15;101562.63;5048978;28;20021;-70
2023/08/15 09:36:15;;;;;;;0.00;0.00;;;;;;;29.52;50.02;101565.31;5049039;28;20025;-68
2023/08/15 09:38:41;;;;;;;0.00;0.00;;;;;;;30.42;48.79;101568.47;5048778;28;20022;-69
2023/08/15 09:41:11;;;;;;;0.00;0.00;;;;;;;29.91;49.05;101566.09;5048973;28;20040;-67
2023/08/15 09:43:48;;;;;;;0.00;0.00;;;;;;;30.97;45.99;101579.97;5049188;28;20017;-69
2023/08/15 09:46:15;;;;;;;0.00;0.00;;;;;;;31.21;43.43;101584.75;5046966;28;20118;-68
2023/08/15 09:48:42;;;;;;;0.00;0.00;;;;;;;31.08;45.31;101588.66;5046398;28;20033;-68
2023/08/15 09:51:11;;;;;;;0.00;0.00;;;;;;;30.28;48.20;101590.13;5049260;28;20041;-69
2023/08/15 09:53:39;;;;;;;0.00;0.00;;;;;;;30.95;46.38;101595.34;5048786;28;20171;-68
2023/08/15 09:56:04;;;;;;;0.00;0.00;;;;;;;31.02;46.81;101595.59;5048891;28;20078;-67
2023/08/15 09:58:30;;;;;;;0.00;0.00;;;;;;;29.44;48.01;101595.84;5049440;28;20024;-67
2023/08/15 10:00:58;;;;;;;0.00;0.00;;;;;;;29.86;47.47;101597.56;5034938;28;20516;-68
2023/08/15 10:03:35;;;;;;;0.00;0.00;;;;;;;29.72;47.66;101599.00;5041623;28;20641;-68
2023/08/15 10:06:02;;;;;;;0.00;0.00;;;;;;;29.39;47.53;101605.16;5048840;28;20033;-69
2023/08/15 10:08:28;;;;;;;0.00;0.00;;;;;;;30.28;45.39;101609.53;5048884;28;20029;-68
2023/08/15 10:10:58;;;;;;;0.00;0.00;;;;;;;29.83;47.59;101608.53;5047770;28;20043;-68
2023/08/15 10:13:30;;;;;;;0.00;0.00;;;;;;;29.25;48.61;101609.28;5049445;28;20016;-68
2023/08/15 10:15:55;;;;;;;0.00;0.00;;;;;;;28.91;50.41;101612.16;5048450;28;20025;-68
2023/08/15 10:18:21;;;;;;;0.00;0.00;;;;;;;29.14;49.00;101611.63;5048629;28;20032;-69
2023/08/15 10:20:53;;;;;;;0.00;0.00;;;;;;;29.64;48.89;101622.78;5048774;28;20045;-69
2023/08/15 10:23:29;;;;;;;0.00;0.00;;;;;;;30.96;44.95;101616.41;5046773;28;20045;-69
2023/08/15 10:25:56;;;;;;;0.00;0.00;;;;;;;30.00;47.24;101608.41;5045762;28;20063;-68
2023/08/15 10:28:21;;;;;;;0.00;0.00;;;;;;;29.67;47.66;101624.06;5049233;28;20029;-68
2023/08/15 10:30:47;;;;;;;0.00;0.00;;;;;;;29.91;47.03;101614.03;5048898;28;20139;-67
2023/08/15 10:33:15;;;;;;;0.00;0.00;;;;;;;29.28;48.68;101622.47;5049402;28;20328;-69
2023/08/15 10:35:50;;;;;;;0.00;0.00;;;;;;;29.85;47.10;101620.09;5049103;28;20566;-68
2023/08/15 10:38:19;;;;;;;0.00;0.00;;;;;;;29.52;48.43;101619.13;5049078;28;20025;-69
2023/08/15 10:40:44;;;;;;;0.00;0.00;;;;;;;31.21;45.00;101628.38;5049842;28;20017;-67
2023/08/15 10:43:12;;;;;;;0.00;0.00;;;;;;;30.56;45.89;101623.66;5047580;28;20101;-67
2023/08/15 10:45:46;;;;;;;0.00;0.00;;;;;;;29.90;47.14;101626.25;5046607;28;20029;-67
2023/08/15 10:48:13;;;;;;;0.00;0.00;;;;;;;30.65;46.50;101624.38;5047922;28;20496;-69
2023/08/15 10:50:48;;;;;;;0.00;0.00;;;;;;;30.45;46.43;101622.47;5048218;28;20085;-69
2023/08/15 10:53:14;;;;;;;0.00;0.00;;;;;;;30.88;45.43;101639.53;5048106;28;20040;-67
2023/08/15 10:55:40;;;;;;;0.00;0.00;;;;;;;31.52;43.05;101631.44;5049127;28;20036;-69
2023/08/15 10:58:10;;;;;;;0.00;0.00;;;;;;;31.16;44.56;101629.41;5047825;28;20045;-68
2023/08/15 11:00:37;;;;;;;0.00;0.00;;;;;;;31.13;44.78;101628.13;5045346;28;20090;-67
2023/08/15 11:03:03;;;;;;;0.00;0.00;;;;;;;30.95;45.09;101632.28;5048144;28;20041;-69
2023/08/15 11:05:29;;;;;;;0.00;0.00;;;;;;;30.55;46.03;101635.88;5048064;28;20497;-70
2023/08/15 11:08:15;;;;;;;0.00;0.00;;;;;;;31.33;44.05;101634.75;5047915;28;20041;-71
2023/08/15 11:10:48;;;;;;;0.00;0.00;;;;;;;31.39;44.87;101638.94;5028376;28;20034;-68
2023/08/15 11:13:17;;;;;;;0.00;0.00;;;;;;;30.23;46.73;101635.47;5046927;28;20152;-69
2023/08/15 11:15:46;;;;;;;0.00;0.00;;;;;;;30.72;46.67;101644.06;5047903;28;20033;-68
2023/08/15 11:18:22;;;;;;;0.00;0.00;;;;;;;29.66;49.15;101658.47;5047849;28;20041;-68
2023/08/15 11:20:48;;;;;;;0.00;0.00;;;;;;;30.28;47.55;101648.38;5048161;28;20526;-68